createdAt,value
2023-02-16T00:00:58.015Z,1.64
2023-02-16T00:02:29.658Z,1.63
2023-02-16T00:04:01.560Z,1.59
2023-02-16T00:05:34.035Z,1.57
2023-02-16T00:07:05.594Z,1.55
2023-02-16T00:08:37.116Z,1.55
2023-02-16T00:10:09.618Z,1.56
2023-02-16T00:11:59.863Z,1.54
2023-02-16T00:13:52.925Z,1.52
2023-02-16T00:15:24.450Z,1.52
2023-02-16T00:16:57.027Z,1.52
2023-02-16T00:18:28.594Z,1.53
2023-02-16T00:20:00.145Z,1.49
2023-02-16T00:21:32.424Z,1.47
2023-02-16T00:23:03.902Z,1.43
2023-02-16T00:24:35.545Z,1.40
2023-02-16T00:26:11.338Z,1.37
2023-02-16T00:27:42.817Z,1.36
2023-02-16T00:29:15.843Z,1.35
2023-02-16T00:30:47.372Z,1.33
2023-02-16T00:32:19.188Z,1.30
2023-02-16T00:33:50.780Z,1.27
2023-02-16T00:35:22.242Z,1.27
2023-02-16T00:36:53.910Z,1.26
2023-02-16T00:38:25.454Z,1.30
2023-02-16T00:39:56.981Z,1.30
2023-02-16T00:41:47.038Z,1.27
2023-02-16T00:43:26.178Z,1.28
2023-02-16T00:44:57.879Z,1.31
2023-02-16T00:46:29.417Z,1.27
2023-02-16T00:48:00.883Z,1.26
2023-02-16T00:49:32.474Z,1.22
2023-02-16T00:51:13.737Z,1.21
2023-02-16T00:52:51.978Z,1.19
2023-02-16T00:54:23.462Z,1.15
2023-02-16T00:55:54.990Z,1.13
2023-02-16T00:57:26.496Z,1.09
2023-02-16T00:58:58.366Z,1.09
2023-02-16T01:00:42.452Z,1.10
2023-02-16T01:02:14.116Z,1.06
2023-02-16T01:03:45.607Z,1.03
2023-02-16T01:05:17.177Z,1.04
2023-02-16T01:07:07.550Z,1.02
2023-02-16T01:08:57.851Z,1.01
2023-02-16T01:10:48.129Z,0.94
2023-02-16T01:12:19.802Z,0.89
2023-02-16T01:13:51.399Z,0.83
2023-02-16T01:15:23.156Z,0.79
2023-02-16T01:16:54.655Z,0.75
2023-02-16T01:18:26.158Z,0.73
2023-02-16T01:19:57.644Z,0.73
2023-02-16T01:21:29.161Z,0.76
2023-02-16T01:23:01.141Z,0.74
2023-02-16T01:24:32.800Z,0.72
2023-02-16T01:26:04.764Z,0.69
2023-02-16T01:27:39.038Z,0.76
2023-02-16T01:29:17.142Z,0.80
2023-02-16T01:30:49.140Z,0.79
2023-02-16T01:32:20.789Z,0.76
2023-02-16T01:33:52.378Z,0.72
2023-02-16T01:35:24.731Z,0.69
2023-02-16T01:36:56.233Z,0.68
2023-02-16T01:38:28.114Z,0.73
2023-02-16T01:39:59.687Z,0.69
2023-02-16T01:41:31.163Z,0.67
2023-02-16T01:43:22.131Z,0.66
2023-02-16T01:44:56.781Z,0.74
2023-02-16T01:46:34.348Z,0.73
2023-02-16T01:48:07.102Z,0.67
2023-02-16T01:49:38.585Z,0.67
2023-02-16T01:51:17.376Z,0.72
2023-02-16T01:53:09.289Z,0.73
2023-02-16T01:54:40.734Z,0.70
2023-02-16T01:56:15.522Z,0.70
2023-02-16T01:57:48.034Z,0.67
2023-02-16T01:59:22.990Z,0.66
2023-02-16T02:00:57.568Z,0.62
2023-02-16T02:02:29.432Z,0.62
2023-02-16T02:04:19.546Z,0.60
2023-02-16T02:05:51.559Z,0.54
2023-02-16T02:07:27.243Z,0.49
2023-02-16T02:09:06.530Z,0.46
2023-02-16T02:10:58.403Z,0.42
2023-02-16T02:12:35.260Z,0.40
2023-02-16T02:14:07.868Z,0.36
2023-02-16T02:15:39.402Z,0.32
2023-02-16T02:17:15.084Z,0.32
2023-02-16T02:18:46.711Z,0.31
2023-02-16T02:20:55.662Z,0.27
2023-02-16T02:22:48.650Z,0.19
2023-02-16T02:24:35.481Z,0.15
2023-02-16T02:26:15.479Z,0.13
2023-02-16T02:27:48.405Z,0.09
2023-02-16T02:29:26.354Z,0.09
2023-02-16T02:31:06.537Z,0.09
2023-02-16T02:32:57.026Z,0.09
2023-02-16T02:34:35.941Z,0.09
2023-02-16T02:36:13.590Z,0.14
2023-02-16T02:38:04.130Z,0.18
2023-02-16T02:39:40.919Z,0.23
2023-02-16T02:41:15.227Z,0.23
2023-02-16T02:42:46.759Z,0.20
2023-02-16T02:44:20.030Z,0.17
2023-02-16T02:45:55.421Z,0.17
2023-02-16T02:47:45.778Z,0.16
2023-02-16T02:49:17.406Z,0.14
2023-02-16T02:51:15.546Z,0.16
2023-02-16T02:52:47.044Z,0.15
2023-02-16T02:54:44.440Z,0.14
2023-02-16T02:56:34.803Z,0.13
2023-02-16T02:58:24.945Z,0.15
2023-02-16T03:00:16.495Z,0.15
2023-02-16T03:01:49.655Z,0.14
2023-02-16T03:03:21.168Z,0.17
2023-02-16T03:04:52.935Z,0.18
2023-02-16T03:06:26.429Z,0.17
2023-02-16T03:08:14.316Z,0.17
2023-02-16T03:09:45.878Z,0.18
2023-02-16T03:11:41.645Z,0.21
2023-02-16T03:13:21.251Z,0.22
2023-02-16T03:14:56.895Z,0.19
2023-02-16T03:16:31.982Z,0.21
2023-02-16T03:18:21.821Z,0.23
2023-02-16T03:20:12.103Z,0.26
2023-02-16T03:22:01.961Z,0.26
2023-02-16T03:23:52.127Z,0.25
2023-02-16T03:25:42.574Z,0.20
2023-02-16T03:27:36.780Z,0.10
2023-02-16T03:29:22.715Z,0.08
2023-02-16T03:30:54.328Z,0.06
2023-02-16T03:32:25.932Z,0.02
2023-02-16T03:33:57.516Z,-0.04
2023-02-16T03:35:29.108Z,-0.04
2023-02-16T03:37:00.918Z,-0.06
2023-02-16T03:38:32.402Z,-0.09
2023-02-16T03:40:22.481Z,-0.08
2023-02-16T03:41:54.843Z,-0.08
2023-02-16T03:43:26.798Z,-0.15
2023-02-16T03:44:58.310Z,-0.17
2023-02-16T03:46:29.879Z,-0.18
2023-02-16T03:48:01.502Z,-0.20
2023-02-16T03:49:32.962Z,-0.22
2023-02-16T03:51:04.753Z,-0.28
2023-02-16T03:52:36.397Z,-0.35
2023-02-16T03:54:08.069Z,-0.45
2023-02-16T03:55:40.420Z,-0.55
2023-02-16T03:57:11.985Z,-0.58
2023-02-16T03:58:43.511Z,-0.62
2023-02-16T04:00:15.126Z,-0.65
2023-02-16T04:01:46.558Z,-0.65
2023-02-16T04:03:18.185Z,-0.65
2023-02-16T04:04:49.822Z,-0.65
2023-02-16T04:06:21.295Z,-0.65
2023-02-16T04:07:52.773Z,-0.66
2023-02-16T04:09:24.333Z,-0.67
2023-02-16T04:10:57.599Z,-0.68
2023-02-16T04:12:38.438Z,-0.71
2023-02-16T04:14:09.955Z,-0.71
2023-02-16T04:15:41.687Z,-0.74
2023-02-16T04:17:13.378Z,-0.77
2023-02-16T04:18:45.142Z,-0.79
2023-02-16T04:20:18.368Z,-0.84
2023-02-16T04:21:50.378Z,-0.88
2023-02-16T04:23:21.878Z,-0.86
2023-02-16T04:24:53.490Z,-0.87
2023-02-16T04:26:25.211Z,-0.88
2023-02-16T04:27:56.731Z,-0.88
2023-02-16T04:29:29.422Z,-0.88
2023-02-16T04:31:01.515Z,-0.90
2023-02-16T04:32:33.349Z,-0.88
2023-02-16T04:34:04.984Z,-0.87
2023-02-16T04:35:36.515Z,-0.81
2023-02-16T04:37:08.616Z,-0.75
2023-02-16T04:38:40.360Z,-0.74
2023-02-16T04:40:14.967Z,-0.78
2023-02-16T04:41:46.799Z,-0.83
2023-02-16T04:43:18.298Z,-0.79
2023-02-16T04:44:49.998Z,-0.77
2023-02-16T04:46:22.153Z,-0.78
2023-02-16T04:47:54.177Z,-0.82
2023-02-16T04:49:25.894Z,-0.87
2023-02-16T04:50:57.339Z,-0.87
2023-02-16T04:52:28.923Z,-0.90
2023-02-16T04:54:00.342Z,-0.93
2023-02-16T04:55:31.862Z,-0.94
2023-02-16T04:57:03.488Z,-0.95
2023-02-16T04:58:34.986Z,-0.99
2023-02-16T05:00:07.346Z,-1.01
2023-02-16T05:01:39.046Z,-1.02
2023-02-16T05:03:10.700Z,-1.05
2023-02-16T05:04:42.434Z,-1.09
2023-02-16T05:06:14.076Z,-1.15
2023-02-16T05:07:45.578Z,-1.19
2023-02-16T05:09:17.075Z,-1.22
2023-02-16T05:11:11.239Z,-1.26
2023-02-16T05:13:01.284Z,-1.27
2023-02-16T05:14:42.018Z,-1.30
2023-02-16T05:16:13.560Z,-1.27
2023-02-16T05:17:45.122Z,-1.26
2023-02-16T05:19:16.681Z,-1.26
2023-02-16T05:21:06.986Z,-1.26
2023-02-16T05:22:39.411Z,-1.24
2023-02-16T05:24:11.334Z,-1.22
2023-02-16T05:25:42.893Z,-1.23
2023-02-16T05:27:17.556Z,-1.26
2023-02-16T05:28:49.117Z,-1.27
2023-02-16T05:30:20.942Z,-1.28
2023-02-16T05:31:52.855Z,-1.29
2023-02-16T05:33:24.372Z,-1.29
2023-02-16T05:34:56.235Z,-1.28
2023-02-16T05:36:27.808Z,-1.33
2023-02-16T05:37:59.362Z,-1.36
2023-02-16T05:39:30.949Z,-1.37
2023-02-16T05:41:03.830Z,-1.36
2023-02-16T05:42:35.601Z,-1.37
2023-02-16T05:44:08.473Z,-1.36
2023-02-16T05:45:40.030Z,-1.36
2023-02-16T05:47:11.747Z,-1.36
2023-02-16T05:48:43.260Z,-1.36
2023-02-16T05:50:14.879Z,-1.37
2023-02-16T05:51:46.353Z,-1.38
2023-02-16T05:53:17.893Z,-1.35
2023-02-16T05:54:49.428Z,-1.25
2023-02-16T05:56:21.170Z,-1.18
2023-02-16T05:57:52.695Z,-1.06
2023-02-16T05:59:24.171Z,-0.90
2023-02-16T06:00:55.737Z,-0.74
2023-02-16T06:02:27.507Z,-0.65
2023-02-16T06:03:59.121Z,-0.59
2023-02-16T06:05:30.612Z,-0.54
2023-02-16T06:07:02.274Z,-0.55
2023-02-16T06:08:33.928Z,-0.55
2023-02-16T06:10:05.822Z,-0.55
2023-02-16T06:11:37.520Z,-0.55
2023-02-16T06:13:09.160Z,-0.52
2023-02-16T06:14:40.732Z,-0.52
2023-02-16T06:16:12.347Z,-0.49
2023-02-16T06:17:44.822Z,-0.44
2023-02-16T06:19:16.673Z,-0.30
2023-02-16T06:20:48.226Z,-0.22
2023-02-16T06:22:19.979Z,-0.08
2023-02-16T06:23:51.604Z,0.07
2023-02-16T06:25:23.254Z,0.21
2023-02-16T06:26:54.798Z,0.36
2023-02-16T06:28:26.299Z,0.53
2023-02-16T06:29:57.976Z,0.68
2023-02-16T06:31:29.750Z,0.85
2023-02-16T06:33:02.033Z,1.02
2023-02-16T06:34:33.595Z,1.19
2023-02-16T06:36:05.366Z,1.35
2023-02-16T06:37:36.832Z,1.47
2023-02-16T06:39:08.496Z,1.57
2023-02-16T06:40:40.007Z,1.70
2023-02-16T06:42:11.682Z,1.76
2023-02-16T06:43:43.716Z,1.83
2023-02-16T06:45:15.315Z,1.83
2023-02-16T06:46:47.160Z,1.86
2023-02-16T06:48:18.956Z,1.85
2023-02-16T06:49:50.433Z,1.88
2023-02-16T06:51:22.029Z,1.94
2023-02-16T06:52:53.641Z,1.96
2023-02-16T06:54:33.667Z,1.98
2023-02-16T06:57:43.090Z,1.91
2023-02-16T06:59:14.710Z,1.88
2023-02-16T07:00:49.413Z,1.92
2023-02-16T07:02:20.966Z,2.00
2023-02-16T07:03:53.450Z,2.14
2023-02-16T07:05:25.106Z,2.25
2023-02-16T07:06:56.702Z,2.35
2023-02-16T07:08:28.263Z,2.43
2023-02-16T07:09:59.845Z,2.55
2023-02-16T07:11:31.359Z,2.63
2023-02-16T07:13:02.868Z,2.67
2023-02-16T07:14:34.354Z,2.67
2023-02-16T07:16:06.181Z,2.71
2023-02-16T07:17:37.911Z,2.75
2023-02-16T07:19:10.733Z,2.70
2023-02-16T07:20:42.239Z,2.73
2023-02-16T07:22:13.774Z,2.69
2023-02-16T07:23:45.499Z,2.75
2023-02-16T07:25:17.199Z,2.80
2023-02-16T07:26:49.210Z,2.86
2023-02-16T07:28:21.015Z,2.84
2023-02-16T07:29:52.563Z,2.80
2023-02-16T07:31:26.627Z,2.76
2023-02-16T07:32:58.238Z,2.75
2023-02-16T07:34:30.125Z,2.77
2023-02-16T07:36:01.780Z,2.82
2023-02-16T07:37:33.253Z,2.84
2023-02-16T07:39:04.902Z,2.88
2023-02-16T07:40:36.499Z,2.89
2023-02-16T07:42:08.010Z,2.98
2023-02-16T07:43:39.691Z,3.14
2023-02-16T07:45:11.317Z,3.23
2023-02-16T07:46:43.004Z,3.33
2023-02-16T07:48:14.522Z,3.46
2023-02-16T07:49:46.224Z,3.49
2023-02-16T07:51:21.597Z,3.52
2023-02-16T07:52:53.682Z,3.51
2023-02-16T07:54:25.561Z,3.54
2023-02-16T07:55:57.203Z,3.50
2023-02-16T07:57:28.943Z,3.50
2023-02-16T07:59:01.022Z,3.49
2023-02-16T08:00:32.896Z,3.47
2023-02-16T08:02:04.455Z,3.45
2023-02-16T08:03:36.180Z,3.45
2023-02-16T08:05:07.912Z,3.52
2023-02-16T08:06:39.585Z,3.58
2023-02-16T08:08:11.190Z,3.63
2023-02-16T08:09:42.722Z,3.64
2023-02-16T08:11:18.056Z,3.65
2023-02-16T08:12:50.082Z,3.68
2023-02-16T08:14:21.552Z,3.66
2023-02-16T08:15:53.065Z,3.75
2023-02-16T08:17:24.653Z,3.77
2023-02-16T08:18:56.860Z,3.76
2023-02-16T08:20:48.179Z,3.80
2023-02-16T08:22:20.185Z,3.87
2023-02-16T08:23:55.284Z,3.99
2023-02-16T08:25:27.414Z,4.06
2023-02-16T08:26:59.981Z,4.09
2023-02-16T08:28:31.469Z,4.22
2023-02-16T08:30:04.141Z,4.35
2023-02-16T08:31:36.641Z,4.59
2023-02-16T08:33:08.400Z,4.74
2023-02-16T08:34:42.940Z,4.82
2023-02-16T08:36:21.354Z,4.84
2023-02-16T08:37:53.033Z,4.82
2023-02-16T08:39:26.155Z,4.90
2023-02-16T08:40:57.621Z,4.97
2023-02-16T08:42:29.260Z,5.03
2023-02-16T08:44:01.265Z,5.10
2023-02-16T08:45:33.177Z,5.02
2023-02-16T08:47:04.997Z,5.05
2023-02-16T08:48:36.962Z,5.18
2023-02-16T08:50:08.973Z,5.32
2023-02-16T08:51:41.618Z,5.53
2023-02-16T08:53:13.688Z,5.68
2023-02-16T08:54:45.280Z,5.81
2023-02-16T08:56:17.030Z,5.89
2023-02-16T08:57:48.636Z,5.98
2023-02-16T08:59:20.422Z,6.02
2023-02-16T09:00:52.103Z,5.93
2023-02-16T09:02:23.901Z,6.04
2023-02-16T09:03:55.896Z,6.15
2023-02-16T09:05:28.386Z,6.26
2023-02-16T09:07:00.663Z,6.38
2023-02-16T09:08:32.968Z,6.51
2023-02-16T09:10:04.826Z,6.61
2023-02-16T09:11:36.557Z,6.71
2023-02-16T09:13:14.356Z,6.85
2023-02-16T09:14:45.975Z,6.88
2023-02-16T09:16:19.122Z,6.80
2023-02-16T09:17:51.010Z,6.83
2023-02-16T09:19:22.801Z,6.97
2023-02-16T09:20:55.119Z,7.12
2023-02-16T09:22:27.559Z,7.17
2023-02-16T09:24:00.936Z,7.27
2023-02-16T09:25:36.137Z,7.34
2023-02-16T09:27:07.680Z,7.34
2023-02-16T09:28:39.589Z,7.39
2023-02-16T09:30:11.328Z,7.53
2023-02-16T09:31:44.580Z,7.60
2023-02-16T09:33:16.830Z,7.64
2023-02-16T09:34:50.310Z,7.75
2023-02-16T09:36:21.883Z,7.82
2023-02-16T09:37:54.644Z,7.95
2023-02-16T09:39:26.487Z,8.07
2023-02-16T09:40:58.123Z,8.16
2023-02-16T09:42:48.365Z,8.17
2023-02-16T09:44:26.395Z,8.34
2023-02-16T09:45:59.005Z,8.57
2023-02-16T09:47:31.805Z,8.78
2023-02-16T09:49:03.856Z,8.91
2023-02-16T09:50:52.981Z,8.97
2023-02-16T09:52:40.404Z,9.14
2023-02-16T09:54:14.981Z,9.40
2023-02-16T09:55:55.125Z,9.61
2023-02-16T09:57:36.105Z,9.81
2023-02-16T09:59:12.914Z,9.94
2023-02-16T10:00:47.648Z,9.99
2023-02-16T10:02:34.835Z,10.04
2023-02-16T10:04:25.105Z,10.13
2023-02-16T10:06:02.890Z,10.28
2023-02-16T10:07:43.207Z,10.35
2023-02-16T10:09:16.580Z,10.40
2023-02-16T10:10:50.202Z,10.48
2023-02-16T10:12:24.074Z,10.55
2023-02-16T10:13:57.594Z,10.68
2023-02-16T10:15:29.420Z,10.82
2023-02-16T10:17:03.677Z,10.86
2023-02-16T10:18:35.700Z,10.88
2023-02-16T10:20:10.445Z,10.82
2023-02-16T10:21:45.263Z,10.81
2023-02-16T10:23:34.194Z,10.82
2023-02-16T10:25:12.873Z,10.95
2023-02-16T10:26:46.429Z,11.06
2023-02-16T10:28:20.285Z,11.18
2023-02-16T10:29:53.452Z,11.31
2023-02-16T10:31:28.068Z,11.33
2023-02-16T10:33:05.277Z,11.39
2023-02-16T10:34:48.303Z,11.47
2023-02-16T10:36:23.114Z,11.58
2023-02-16T10:38:03.678Z,11.70
2023-02-16T10:39:53.819Z,11.90
2023-02-16T10:41:28.236Z,12.10
2023-02-16T10:43:07.377Z,12.30
2023-02-16T10:44:43.810Z,12.47
2023-02-16T10:46:16.981Z,12.59
2023-02-16T10:47:48.688Z,12.73
2023-02-16T10:49:21.151Z,12.77
2023-02-16T10:50:56.641Z,12.85
2023-02-16T10:52:29.327Z,12.99
2023-02-16T10:54:02.148Z,13.15
2023-02-16T10:55:33.708Z,13.25
2023-02-16T10:57:13.325Z,13.45
2023-02-16T10:58:44.876Z,13.62
2023-02-16T11:00:16.813Z,13.68
2023-02-16T11:01:54.934Z,13.70
2023-02-16T11:03:32.156Z,13.70
2023-02-16T11:05:06.444Z,13.80
2023-02-16T11:06:38.475Z,13.96
2023-02-16T11:08:12.889Z,14.11
2023-02-16T11:09:45.472Z,14.12
2023-02-16T11:11:17.135Z,14.25
2023-02-16T11:12:51.155Z,14.39
2023-02-16T11:14:23.995Z,14.50
2023-02-16T11:15:57.016Z,14.63
2023-02-16T11:17:28.937Z,14.74
2023-02-16T11:19:06.185Z,14.86
2023-02-16T11:20:46.815Z,14.94
2023-02-16T11:22:26.164Z,15.08
2023-02-16T11:23:58.483Z,15.16
2023-02-16T11:25:30.091Z,15.25
2023-02-16T11:27:08.362Z,15.40
2023-02-16T11:28:40.045Z,15.58
2023-02-16T11:30:22.363Z,15.60
2023-02-16T11:31:54.102Z,15.62
2023-02-16T11:33:27.101Z,15.66
2023-02-16T11:34:58.675Z,15.72
2023-02-16T11:36:57.189Z,15.84
2023-02-16T11:38:32.842Z,15.87
2023-02-16T11:40:09.442Z,15.90
2023-02-16T11:41:44.377Z,15.90
2023-02-16T11:43:17.102Z,15.87
2023-02-16T11:44:52.373Z,15.98
2023-02-16T11:46:24.172Z,16.11
2023-02-16T11:47:57.088Z,16.18
2023-02-16T11:49:36.139Z,16.16
2023-02-16T11:51:08.998Z,16.20
2023-02-16T11:52:40.527Z,16.33
2023-02-16T11:54:16.197Z,16.38
2023-02-16T11:55:48.236Z,16.54
2023-02-16T11:57:23.642Z,16.57
2023-02-16T11:59:13.424Z,16.53
2023-02-16T12:01:00.351Z,16.55
2023-02-16T12:02:41.255Z,16.55
2023-02-16T12:04:22.521Z,16.46
2023-02-16T12:05:54.882Z,16.52
2023-02-16T12:07:27.630Z,16.64
2023-02-16T12:09:11.606Z,16.79
2023-02-16T12:10:52.201Z,17.02
2023-02-16T12:12:46.792Z,17.07
2023-02-16T12:14:29.256Z,17.10
2023-02-16T12:16:01.284Z,17.09
2023-02-16T12:17:55.055Z,17.12
2023-02-16T12:19:29.872Z,17.20
2023-02-16T12:21:01.989Z,17.27
2023-02-16T12:22:40.421Z,17.37
2023-02-16T12:24:27.808Z,17.53
2023-02-16T12:26:08.666Z,17.58
2023-02-16T12:27:43.116Z,17.46
2023-02-16T12:29:23.556Z,17.51
2023-02-16T12:31:12.330Z,17.60
2023-02-16T12:33:10.873Z,17.74
2023-02-16T12:34:42.454Z,17.87
2023-02-16T12:36:20.324Z,18.02
2023-02-16T12:37:52.539Z,18.19
2023-02-16T12:39:31.994Z,18.28
2023-02-16T12:41:10.073Z,18.31
2023-02-16T12:42:51.278Z,18.23
2023-02-16T12:44:32.453Z,18.16
2023-02-16T12:46:07.513Z,18.11
2023-02-16T12:47:44.078Z,18.18
2023-02-16T12:49:16.876Z,18.19
2023-02-16T12:50:48.621Z,18.22
2023-02-16T12:52:26.032Z,18.25
2023-02-16T12:54:18.342Z,18.30
2023-02-16T12:55:52.120Z,18.29
2023-02-16T12:57:24.841Z,18.37
2023-02-16T12:59:03.576Z,18.45
2023-02-16T13:00:40.745Z,18.54
2023-02-16T13:02:15.274Z,18.56
2023-02-16T13:03:47.589Z,18.58
2023-02-16T13:05:23.089Z,18.59
2023-02-16T13:07:06.626Z,18.61
2023-02-16T13:08:47.446Z,18.68
2023-02-16T13:10:19.073Z,18.75
2023-02-16T13:12:19.736Z,18.81
2023-02-16T13:13:52.340Z,18.61
2023-02-16T13:15:31.201Z,18.55
2023-02-16T13:17:03.663Z,18.61
2023-02-16T13:18:41.229Z,18.62
2023-02-16T13:20:15.251Z,18.72
2023-02-16T13:21:51.222Z,18.84
2023-02-16T13:23:32.960Z,18.88
2023-02-16T13:25:34.086Z,18.84
2023-02-16T13:27:24.607Z,18.72
2023-02-16T13:29:31.772Z,18.76
2023-02-16T13:31:15.886Z,18.69
2023-02-16T13:32:48.811Z,18.62
2023-02-16T13:34:24.965Z,18.66
2023-02-16T13:36:03.752Z,18.41
2023-02-16T13:37:56.409Z,18.43
2023-02-16T13:39:56.199Z,18.48
2023-02-16T13:41:30.886Z,18.59
2023-02-16T13:43:02.971Z,18.58
2023-02-16T13:44:34.575Z,18.65
2023-02-16T13:46:38.538Z,18.68
2023-02-16T13:48:27.272Z,18.67
2023-02-16T13:50:02.883Z,18.61
2023-02-16T13:51:44.351Z,18.50
2023-02-16T13:53:17.719Z,18.38
2023-02-16T13:54:50.342Z,18.48
2023-02-16T13:56:22.684Z,18.49
2023-02-16T13:58:00.398Z,18.33
2023-02-16T13:59:34.697Z,18.26
2023-02-16T14:01:24.847Z,18.12
2023-02-16T14:03:03.770Z,18.00
2023-02-16T14:04:35.399Z,17.93
2023-02-16T14:06:25.751Z,17.91
2023-02-16T14:08:18.138Z,17.92
2023-02-16T14:09:50.243Z,18.03
2023-02-16T14:11:21.913Z,18.04
2023-02-16T14:12:53.982Z,17.98
2023-02-16T14:14:25.584Z,17.96
2023-02-16T14:15:58.000Z,17.88
2023-02-16T14:17:31.185Z,17.89
2023-02-16T14:19:17.056Z,17.89
2023-02-16T14:20:50.682Z,17.85
2023-02-16T14:22:31.299Z,17.86
2023-02-16T14:24:03.486Z,17.96
2023-02-16T14:25:35.834Z,18.08
2023-02-16T14:27:09.459Z,18.18
2023-02-16T14:29:03.701Z,18.27
2023-02-16T14:30:55.573Z,18.38
2023-02-16T14:32:28.716Z,18.44
2023-02-16T14:34:02.342Z,18.46
2023-02-16T14:35:37.825Z,18.51
2023-02-16T14:37:10.556Z,18.47
2023-02-16T14:38:42.501Z,18.30
2023-02-16T14:40:15.924Z,18.19
2023-02-16T14:41:47.678Z,18.12
2023-02-16T14:43:26.654Z,18.09
2023-02-16T14:45:03.763Z,18.06
2023-02-16T14:46:38.013Z,18.08
2023-02-16T14:48:18.724Z,18.04
2023-02-16T14:50:03.825Z,17.98
2023-02-16T14:51:38.120Z,17.90
2023-02-16T14:53:18.014Z,17.77
2023-02-16T14:55:07.890Z,17.62
2023-02-16T14:56:42.134Z,17.56
2023-02-16T14:58:20.358Z,17.53
2023-02-16T14:59:57.453Z,17.50
2023-02-16T15:01:29.238Z,17.47
2023-02-16T15:03:02.106Z,17.47
2023-02-16T15:04:33.828Z,17.43
2023-02-16T15:06:06.531Z,17.30
2023-02-16T15:07:39.145Z,17.12
2023-02-16T15:09:26.706Z,16.95
2023-02-16T15:10:58.237Z,16.81
2023-02-16T15:12:30.068Z,16.73
2023-02-16T15:14:03.658Z,16.67
2023-02-16T15:15:37.812Z,16.61
2023-02-16T15:17:10.250Z,16.62
2023-02-16T15:18:42.884Z,16.64
2023-02-16T15:20:30.615Z,16.57
2023-02-16T15:22:17.632Z,16.52
2023-02-16T15:23:53.306Z,16.49
2023-02-16T15:25:24.992Z,16.47
2023-02-16T15:26:57.102Z,16.39
2023-02-16T15:28:32.604Z,16.37
2023-02-16T15:30:09.634Z,16.39
2023-02-16T15:31:41.340Z,16.46
2023-02-16T15:33:24.898Z,16.48
2023-02-16T15:34:56.963Z,16.50
2023-02-16T15:36:46.733Z,16.48
2023-02-16T15:38:18.257Z,16.42
2023-02-16T15:40:08.665Z,16.37
2023-02-16T15:41:43.394Z,16.25
2023-02-16T15:43:33.339Z,16.16
2023-02-16T15:45:18.930Z,16.08
2023-02-16T15:46:50.675Z,15.96
2023-02-16T15:48:35.467Z,15.85
2023-02-16T15:50:12.214Z,15.71
2023-02-16T15:51:44.868Z,15.57
2023-02-16T15:53:16.655Z,15.44
2023-02-16T15:54:48.399Z,15.31
2023-02-16T15:56:29.690Z,15.19
2023-02-16T15:58:01.324Z,15.06
2023-02-16T15:59:38.841Z,14.94
2023-02-16T16:01:10.995Z,14.78
2023-02-16T16:02:44.038Z,14.61
2023-02-16T16:04:17.712Z,14.45
2023-02-16T16:06:03.402Z,14.27
2023-02-16T16:07:36.472Z,14.11
2023-02-16T16:09:08.727Z,13.95
2023-02-16T16:10:42.155Z,13.78
2023-02-16T16:12:16.448Z,13.62
2023-02-16T16:13:48.775Z,13.44
2023-02-16T16:15:21.399Z,13.29
2023-02-16T16:16:53.105Z,13.16
2023-02-16T16:18:39.772Z,13.09
2023-02-16T16:20:31.083Z,12.96
2023-02-16T16:22:04.650Z,12.83
2023-02-16T16:23:36.938Z,12.70
2023-02-16T16:25:27.376Z,12.57
2023-02-16T16:26:59.281Z,12.47
2023-02-16T16:28:31.800Z,12.42
2023-02-16T16:30:15.581Z,12.33
2023-02-16T16:31:47.609Z,12.25
2023-02-16T16:33:19.251Z,12.19
2023-02-16T16:34:51.890Z,12.08
2023-02-16T16:36:33.428Z,11.98
2023-02-16T16:38:05.611Z,11.90
2023-02-16T16:39:37.976Z,11.81
2023-02-16T16:41:25.249Z,11.70
2023-02-16T16:43:17.368Z,11.62
2023-02-16T16:44:54.832Z,11.54
2023-02-16T16:46:27.031Z,11.49
2023-02-16T16:47:58.813Z,11.48
2023-02-16T16:49:30.372Z,11.48
2023-02-16T16:51:27.716Z,11.44
2023-02-16T16:52:59.424Z,11.43
2023-02-16T16:54:35.688Z,11.41
2023-02-16T16:56:11.408Z,11.43
2023-02-16T16:57:43.002Z,11.45
2023-02-16T16:59:14.583Z,11.44
2023-02-16T17:00:46.174Z,11.43
2023-02-16T17:02:18.398Z,11.49
2023-02-16T17:03:50.124Z,11.51
2023-02-16T17:05:21.939Z,11.46
2023-02-16T17:06:54.129Z,11.40
2023-02-16T17:08:25.659Z,11.37
2023-02-16T17:09:57.798Z,11.38
2023-02-16T17:11:38.015Z,11.33
2023-02-16T17:13:13.489Z,11.28
2023-02-16T17:14:45.007Z,11.22
2023-02-16T17:16:17.734Z,11.11
2023-02-16T17:17:49.419Z,11.07
2023-02-16T17:19:21.533Z,11.08
2023-02-16T17:20:53.274Z,11.14
2023-02-16T17:22:25.053Z,11.15
2023-02-16T17:23:56.672Z,11.10
2023-02-16T17:25:28.542Z,11.00
2023-02-16T17:27:00.698Z,10.93
2023-02-16T17:28:37.035Z,10.82
2023-02-16T17:30:09.025Z,10.77
2023-02-16T17:31:40.723Z,10.70
2023-02-16T17:33:12.374Z,10.68
2023-02-16T17:34:44.963Z,10.63
2023-02-16T17:36:17.055Z,10.64
2023-02-16T17:37:48.805Z,10.61
2023-02-16T17:39:20.399Z,10.57
2023-02-16T17:40:52.510Z,10.51
2023-02-16T17:42:24.091Z,10.48
2023-02-16T17:43:55.934Z,10.48
2023-02-16T17:45:27.438Z,10.48
2023-02-16T17:46:58.938Z,10.48
2023-02-16T17:48:30.757Z,10.47
2023-02-16T17:50:02.337Z,10.49
2023-02-16T17:51:36.501Z,10.49
2023-02-16T17:53:15.212Z,10.46
2023-02-16T17:54:46.718Z,10.39
2023-02-16T17:56:19.452Z,10.35
2023-02-16T17:57:51.954Z,10.34
2023-02-16T17:59:23.757Z,10.30
2023-02-16T18:00:55.424Z,10.27
2023-02-16T18:02:27.197Z,10.21
2023-02-16T18:03:59.714Z,10.12
2023-02-16T18:05:31.220Z,9.98
2023-02-16T18:07:02.888Z,9.84
2023-02-16T18:08:34.419Z,9.79
2023-02-16T18:10:06.265Z,9.69
2023-02-16T18:11:37.833Z,9.59
2023-02-16T18:13:11.601Z,9.42
2023-02-16T18:14:43.820Z,9.34
2023-02-16T18:16:16.143Z,9.32
2023-02-16T18:17:47.714Z,9.26
2023-02-16T18:19:19.563Z,9.15
2023-02-16T18:20:51.041Z,9.05
2023-02-16T18:22:22.564Z,9.01
2023-02-16T18:23:54.188Z,8.94
2023-02-16T18:25:25.883Z,8.91
2023-02-16T18:26:57.701Z,8.87
2023-02-16T18:28:30.850Z,8.86
2023-02-16T18:30:02.553Z,8.87
2023-02-16T18:31:34.168Z,8.85
2023-02-16T18:33:05.728Z,8.83
2023-02-16T18:34:37.658Z,8.84
2023-02-16T18:36:10.081Z,8.85
2023-02-16T18:37:41.700Z,8.92
2023-02-16T18:39:13.376Z,8.91
2023-02-16T18:40:44.972Z,8.88
2023-02-16T18:42:16.666Z,8.89
2023-02-16T18:43:48.173Z,8.92
2023-02-16T18:45:19.805Z,8.96
2023-02-16T18:46:51.952Z,9.01
2023-02-16T18:48:23.606Z,9.00
2023-02-16T18:49:56.476Z,8.96
2023-02-16T18:51:29.539Z,8.90
2023-02-16T18:53:01.156Z,8.85
2023-02-16T18:54:33.113Z,8.77
2023-02-16T18:56:07.628Z,8.73
2023-02-16T18:57:39.302Z,8.82
2023-02-16T18:59:11.694Z,8.90
2023-02-16T19:00:43.351Z,8.95
2023-02-16T19:02:14.874Z,8.94
2023-02-16T19:03:46.459Z,8.93
2023-02-16T19:05:18.411Z,8.99
2023-02-16T19:06:50.660Z,9.06
2023-02-16T19:08:22.371Z,9.16
2023-02-16T19:09:53.935Z,9.21
2023-02-16T19:11:25.693Z,9.23
2023-02-16T19:12:57.419Z,9.27
2023-02-16T19:14:29.066Z,9.28
2023-02-16T19:16:00.819Z,9.23
2023-02-16T19:17:32.395Z,9.19
2023-02-16T19:19:04.269Z,9.18
2023-02-16T19:20:35.966Z,9.20
2023-02-16T19:22:07.466Z,9.18
2023-02-16T19:23:39.219Z,9.20
2023-02-16T19:25:10.920Z,9.25
2023-02-16T19:26:43.097Z,9.25
2023-02-16T19:28:14.735Z,9.23
2023-02-16T19:29:49.335Z,9.25
2023-02-16T19:31:25.064Z,9.25
2023-02-16T19:32:56.723Z,9.21
2023-02-16T19:34:29.032Z,9.17
2023-02-16T19:36:04.520Z,9.12
2023-02-16T19:37:36.405Z,9.05
2023-02-16T19:39:08.053Z,8.97
2023-02-16T19:40:39.614Z,8.89
2023-02-16T19:42:11.195Z,8.84
2023-02-16T19:43:43.719Z,8.77
2023-02-16T19:45:15.399Z,8.82
2023-02-16T19:46:47.123Z,8.81
2023-02-16T19:48:18.923Z,8.81
2023-02-16T19:49:50.590Z,8.79
2023-02-16T19:51:22.224Z,8.72
2023-02-16T19:52:54.126Z,8.67
2023-02-16T19:54:26.529Z,8.65
2023-02-16T19:55:58.056Z,8.64
2023-02-16T19:57:29.862Z,8.62
2023-02-16T19:59:01.669Z,8.67
2023-02-16T20:00:33.286Z,8.69
2023-02-16T20:02:04.837Z,8.66
2023-02-16T20:03:36.519Z,8.61
2023-02-16T20:05:09.805Z,8.58
2023-02-16T20:06:42.042Z,8.51
2023-02-16T20:08:13.617Z,8.49
2023-02-16T20:09:45.269Z,8.52
2023-02-16T20:11:17.715Z,8.56
2023-02-16T20:12:49.203Z,8.57
2023-02-16T20:14:21.080Z,8.48
2023-02-16T20:15:53.033Z,8.40
2023-02-16T20:17:24.987Z,8.32
2023-02-16T20:18:57.105Z,8.24
2023-02-16T20:20:28.733Z,8.16
2023-02-16T20:22:00.283Z,8.16
2023-02-16T20:23:31.837Z,8.09
2023-02-16T20:25:03.692Z,8.06
2023-02-16T20:26:36.303Z,8.05
2023-02-16T20:28:07.907Z,8.05
2023-02-16T20:29:39.871Z,8.02
2023-02-16T20:31:12.578Z,8.00
2023-02-16T20:32:46.983Z,8.03
2023-02-16T20:34:19.579Z,8.00
2023-02-16T20:35:51.165Z,7.97
2023-02-16T20:37:22.695Z,8.02
2023-02-16T20:38:54.343Z,8.05
2023-02-16T20:40:26.132Z,8.03
2023-02-16T20:41:58.457Z,7.96
2023-02-16T20:43:30.492Z,7.90
2023-02-16T20:45:03.709Z,7.87